Hanford, CA

4:58 AM PDT on September 30, 2014 (GMT -0700)
McClarty Farms | Change Station
CLOSE
Current Station
Personal Weather Station
Location: Parlier, CA
Elevation: 338 ft
Nearby Weather Stations

Elev 338 ft 36.62 °N, 119.58 °W | Updated 2 minutes ago

Clear
Clear
54.8 °F
Feels Like 54.8 °F
N
0.0
Wind Variable Wind from North
Gusts 0.0 mph

Today
High -- | Low -- °F
--% Chance of Precip.
Yesterday
High -- | Low -- °F
Precip. -- in
6:52 AM 6:43 PM
Waxing Crescent, 36% visible
Pressure 29.93 in
Visibility 8.0 miles
Clouds Clear
Dew Point 50 °F
Humidity 85%
Rainfall 0.00 in
Snow Depth 0 in , 2 in , 2 in
UV 0 out of 12
Pollen 5.40 out of 12
Air Quality Not available.
Flu Activity Not available.
METAR KHJO 301053Z AUTO 00000KT 8SM CLR 14/10 A2993 RMK AO2 SLP135 T01390100

More Conditions Fewer Conditions

Pressure 29.93 in
Visibility 8.0 miles
Clouds Clear
Dew Point 50 °F
Humidity 85%
Rainfall 0.00 in
Snow Depth 0 in , 2 in , 2 in
UV 0 out of 12
Pollen 5.40 out of 12
Air Quality Not available.
Flu Activity Not available.
METAR KHJO 301053Z AUTO 00000KT 8SM CLR 14/10 A2993 RMK AO2 SLP135 T01390100

More Conditions Fewer Conditions

10-Day Weather Forecast

Almanac

Astronomy

Sep. 30, 2014 Rise Set
Actual Time 6:52 AM PDT 6:43 PM PDT
Civil Twilight 6:27 AM PDT 7:09 PM PDT
Nautical Twilight 5:57 AM PDT 7:38 PM PDT
Astronomical Twilight 5:27 AM PDT 8:08 PM PDT
Moon 12:57 PM PDT 11:26 PM PDT
Length of Visible Light 12h 41m
Length of Day
11h 50m
Tomorrow will be 2m 17s shorter.
Waxing Crescent, 36% of the Moon is Illuminated
Today
Waxing Crescent
Oct 1
First Quarter
Oct 8
Full
Oct 15
Last Quarter
Oct 23
New

Today's Extremes

State Highs State Lows

Community

WunderPhotos

Upload Photos

1,757,618 photos uploaded!

Nearby

Air Quality

  Air Quality AQ Index Pollutant
Tuesday Moderate
OZONE
Wednesday Moderate
OZONE
Thursday Moderate
OZONE
Friday Moderate
OZONE
Saturday Moderate
OZONE

Snow Depth

Station Depth Elevation
Carson Pass 0 in 8500 ft
Heavenly Valley 2 in 8850 ft
CSS Lab 2 in 6900 ft
Poison Flat 0 in 7900 ft
Tahoe City Cross 0 in 6750 ft

Earthquake Activity

City Distance Mag. Time & Date
South Dos Palos, California 69 miles 2.5 9:18 PM PDT
2014-09-29
South Dos Palos, California 69 miles 2.7 8:46 PM PDT
2014-09-28
South Dos Palos, California 69 miles 4.4 1:45 PM PDT
2014-09-28
South Dos Palos, California 70 miles 2.6 12:49 PM PDT
2014-09-28
Minimum magnitude displayed is 2.5.

Coastal Water Temperatures

Place Temperature
No Stations Reporting

Nearby Weather Stations